sensor_id;sensor_type;location;lat;lon;timestamp;P1;durP1;ratioP1;P2;durP2;ratioP2
9924;SDS011;5001;51.674;7.868;2022-11-13T00:01:29;25.67;;;19.20;;
9924;SDS011;5001;51.674;7.868;2022-11-13T00:04:14;28.13;;;20.83;;
9924;SDS011;5001;51.674;7.868;2022-11-13T00:07:00;28.37;;;19.97;;
9924;SDS011;5001;51.674;7.868;2022-11-13T00:09:46;33.43;;;24.63;;
9924;SDS011;5001;51.674;7.868;2022-11-13T00:12:31;31.37;;;22.57;;
9924;SDS011;5001;51.674;7.868;2022-11-13T00:15:17;32.33;;;24.00;;
9924;SDS011;5001;51.674;7.868;2022-11-13T00:18:03;37.67;;;24.90;;
9924;SDS011;5001;51.674;7.868;2022-11-13T00:20:48;31.67;;;21.10;;
9924;SDS011;5001;51.674;7.868;2022-11-13T00:23:34;34.93;;;22.30;;
9924;SDS011;5001;51.674;7.868;2022-11-13T00:26:21;25.10;;;19.07;;
9924;SDS011;5001;51.674;7.868;2022-11-13T00:29:09;23.50;;;19.43;;
9924;SDS011;5001;51.674;7.868;2022-11-13T00:31:55;25.07;;;20.37;;
9924;SDS011;5001;51.674;7.868;2022-11-13T00:34:40;29.00;;;21.70;;
9924;SDS011;5001;51.674;7.868;2022-11-13T00:37:33;32.40;;;22.87;;
9924;SDS011;5001;51.674;7.868;2022-11-13T00:40:19;25.93;;;19.90;;
9924;SDS011;5001;51.674;7.868;2022-11-13T00:43:04;30.63;;;22.17;;
9924;SDS011;5001;51.674;7.868;2022-11-13T00:45:50;27.47;;;21.33;;
9924;SDS011;5001;51.674;7.868;2022-11-13T00:48:35;34.60;;;23.50;;
9924;SDS011;5001;51.674;7.868;2022-11-13T00:51:21;30.33;;;22.60;;
9924;SDS011;5001;51.674;7.868;2022-11-13T00:54:07;27.77;;;20.80;;
9924;SDS011;5001;51.674;7.868;2022-11-13T00:56:53;34.53;;;24.70;;
9924;SDS011;5001;51.674;7.868;2022-11-13T00:59:38;30.50;;;22.70;;
9924;SDS011;5001;51.674;7.868;2022-11-13T01:02:24;28.93;;;19.47;;
9924;SDS011;5001;51.674;7.868;2022-11-13T01:05:09;26.20;;;19.03;;
9924;SDS011;5001;51.674;7.868;2022-11-13T01:07:55;29.63;;;20.67;;
9924;SDS011;5001;51.674;7.868;2022-11-13T01:10:42;24.37;;;18.80;;
9924;SDS011;5001;51.674;7.868;2022-11-13T01:13:38;25.57;;;18.37;;
9924;SDS011;5001;51.674;7.868;2022-11-13T01:16:25;30.90;;;21.60;;
9924;SDS011;5001;51.674;7.868;2022-11-13T01:19:12;24.97;;;19.97;;
9924;SDS011;5001;51.674;7.868;2022-11-13T01:21:58;23.70;;;16.73;;
9924;SDS011;5001;51.674;7.868;2022-11-13T01:24:43;22.70;;;17.27;;
9924;SDS011;5001;51.674;7.868;2022-11-13T01:27:29;19.37;;;16.13;;
9924;SDS011;5001;51.674;7.868;2022-11-13T01:30:14;26.47;;;17.30;;
9924;SDS011;5001;51.674;7.868;2022-11-13T01:33:00;26.07;;;17.83;;
9924;SDS011;5001;51.674;7.868;2022-11-13T01:35:46;28.33;;;17.73;;
9924;SDS011;5001;51.674;7.868;2022-11-13T01:38:32;24.70;;;17.13;;
9924;SDS011;5001;51.674;7.868;2022-11-13T01:41:25;25.03;;;17.70;;
9924;SDS011;5001;51.674;7.868;2022-11-13T01:44:16;24.63;;;17.20;;
9924;SDS011;5001;51.674;7.868;2022-11-13T01:47:03;21.80;;;16.23;;
9924;SDS011;5001;51.674;7.868;2022-11-13T01:49:50;28.97;;;19.47;;
9924;SDS011;5001;51.674;7.868;2022-11-13T01:52:38;29.17;;;18.77;;
9924;SDS011;5001;51.674;7.868;2022-11-13T01:55:26;24.17;;;16.80;;
9924;SDS011;5001;51.674;7.868;2022-11-13T01:58:12;25.77;;;19.03;;
9924;SDS011;5001;51.674;7.868;2022-11-13T02:00:58;30.63;;;21.20;;
9924;SDS011;5001;51.674;7.868;2022-11-13T02:03:43;25.63;;;19.73;;
9924;SDS011;5001;51.674;7.868;2022-11-13T02:06:34;27.53;;;19.37;;
9924;SDS011;5001;51.674;7.868;2022-11-13T02:09:26;24.93;;;18.03;;
9924;SDS011;5001;51.674;7.868;2022-11-13T02:12:18;22.77;;;16.73;;
9924;SDS011;5001;51.674;7.868;2022-11-13T02:15:20;24.27;;;16.53;;
9924;SDS011;5001;51.674;7.868;2022-11-13T02:18:09;23.10;;;16.07;;
9924;SDS011;5001;51.674;7.868;2022-11-13T02:27:00;21.20;;;16.43;;
9924;SDS011;5001;51.674;7.868;2022-11-13T02:29:49;23.43;;;15.93;;
9924;SDS011;5001;51.674;7.868;2022-11-13T02:32:40;22.70;;;16.70;;
9924;SDS011;5001;51.674;7.868;2022-11-13T02:35:31;20.53;;;15.83;;
9924;SDS011;5001;51.674;7.868;2022-11-13T02:38:18;27.93;;;16.77;;
9924;SDS011;5001;51.674;7.868;2022-11-13T02:41:04;22.60;;;16.73;;
9924;SDS011;5001;51.674;7.868;2022-11-13T02:43:49;20.93;;;16.23;;
9924;SDS011;5001;51.674;7.868;2022-11-13T02:46:35;20.90;;;15.73;;
9924;SDS011;5001;51.674;7.868;2022-11-13T02:49:20;22.57;;;16.27;;
9924;SDS011;5001;51.674;7.868;2022-11-13T02:52:06;21.07;;;15.47;;
9924;SDS011;5001;51.674;7.868;2022-11-13T02:54:52;21.37;;;16.00;;
9924;SDS011;5001;51.674;7.868;2022-11-13T02:57:37;19.43;;;15.57;;
9924;SDS011;5001;51.674;7.868;2022-11-13T03:00:23;26.27;;;15.87;;
9924;SDS011;5001;51.674;7.868;2022-11-13T03:03:09;23.13;;;16.43;;
9924;SDS011;5001;51.674;7.868;2022-11-13T03:05:54;20.03;;;15.07;;
9924;SDS011;5001;51.674;7.868;2022-11-13T03:08:40;21.37;;;14.97;;
9924;SDS011;5001;51.674;7.868;2022-11-13T03:11:25;23.37;;;16.07;;
9924;SDS011;5001;51.674;7.868;2022-11-13T03:14:11;19.43;;;15.43;;
9924;SDS011;5001;51.674;7.868;2022-11-13T03:16:57;25.57;;;15.83;;
9924;SDS011;5001;51.674;7.868;2022-11-13T03:19:42;22.10;;;16.10;;
9924;SDS011;5001;51.674;7.868;2022-11-13T03:22:27;19.30;;;15.60;;
9924;SDS011;5001;51.674;7.868;2022-11-13T03:25:13;23.17;;;15.00;;
9924;SDS011;5001;51.674;7.868;2022-11-13T03:27:59;19.30;;;15.23;;
9924;SDS011;5001;51.674;7.868;2022-11-13T03:30:46;18.57;;;13.27;;
9924;SDS011;5001;51.674;7.868;2022-11-13T03:33:31;17.23;;;14.07;;
9924;SDS011;5001;51.674;7.868;2022-11-13T03:36:17;20.97;;;13.50;;
9924;SDS011;5001;51.674;7.868;2022-11-13T03:39:03;16.77;;;13.97;;
9924;SDS011;5001;51.674;7.868;2022-11-13T03:41:49;16.43;;;13.13;;
9924;SDS011;5001;51.674;7.868;2022-11-13T03:44:34;18.07;;;13.27;;
9924;SDS011;5001;51.674;7.868;2022-11-13T03:47:20;17.63;;;13.13;;
9924;SDS011;5001;51.674;7.868;2022-11-13T03:50:05;17.00;;;13.33;;
9924;SDS011;5001;51.674;7.868;2022-11-13T03:52:51;17.70;;;12.63;;
9924;SDS011;5001;51.674;7.868;2022-11-13T03:55:37;15.90;;;12.53;;
9924;SDS011;5001;51.674;7.868;2022-11-13T03:58:23;18.97;;;13.60;;
9924;SDS011;5001;51.674;7.868;2022-11-13T04:01:08;17.67;;;13.07;;
9924;SDS011;5001;51.674;7.868;2022-11-13T04:03:54;18.27;;;14.17;;
9924;SDS011;5001;51.674;7.868;2022-11-13T04:06:39;19.13;;;15.53;;
9924;SDS011;5001;51.674;7.868;2022-11-13T04:09:25;17.23;;;12.70;;
9924;SDS011;5001;51.674;7.868;2022-11-13T04:12:11;16.07;;;12.73;;
9924;SDS011;5001;51.674;7.868;2022-11-13T04:14:57;17.63;;;12.90;;
9924;SDS011;5001;51.674;7.868;2022-11-13T04:17:43;17.77;;;12.83;;
9924;SDS011;5001;51.674;7.868;2022-11-13T04:20:28;15.17;;;12.27;;
9924;SDS011;5001;51.674;7.868;2022-11-13T04:23:14;19.93;;;12.93;;
9924;SDS011;5001;51.674;7.868;2022-11-13T04:26:01;16.03;;;11.90;;
9924;SDS011;5001;51.674;7.868;2022-11-13T04:28:47;17.37;;;11.97;;
9924;SDS011;5001;51.674;7.868;2022-11-13T04:31:32;13.40;;;11.13;;
9924;SDS011;5001;51.674;7.868;2022-11-13T04:34:18;14.47;;;12.13;;
9924;SDS011;5001;51.674;7.868;2022-11-13T04:37:03;13.37;;;11.83;;
9924;SDS011;5001;51.674;7.868;2022-11-13T04:39:49;16.67;;;12.70;;
9924;SDS011;5001;51.674;7.868;2022-11-13T04:42:34;14.73;;;11.47;;
9924;SDS011;5001;51.674;7.868;2022-11-13T04:45:35;12.77;;;10.80;;
9924;SDS011;5001;51.674;7.868;2022-11-13T04:48:21;15.13;;;11.50;;
9924;SDS011;5001;51.674;7.868;2022-11-13T04:51:07;17.77;;;12.60;;
9924;SDS011;5001;51.674;7.868;2022-11-13T04:53:52;14.73;;;11.90;;
9924;SDS011;5001;51.674;7.868;2022-11-13T04:56:38;13.73;;;11.10;;
9924;SDS011;5001;51.674;7.868;2022-11-13T04:59:23;13.97;;;11.57;;
9924;SDS011;5001;51.674;7.868;2022-11-13T05:02:09;13.60;;;11.40;;
9924;SDS011;5001;51.674;7.868;2022-11-13T05:04:55;16.03;;;12.60;;
9924;SDS011;5001;51.674;7.868;2022-11-13T05:07:48;13.67;;;11.33;;
9924;SDS011;5001;51.674;7.868;2022-11-13T05:10:33;14.97;;;11.97;;
9924;SDS011;5001;51.674;7.868;2022-11-13T05:13:19;15.07;;;11.63;;
9924;SDS011;5001;51.674;7.868;2022-11-13T05:16:06;13.47;;;11.13;;
9924;SDS011;5001;51.674;7.868;2022-11-13T05:18:56;12.83;;;10.83;;
9924;SDS011;5001;51.674;7.868;2022-11-13T05:21:42;13.77;;;11.20;;
9924;SDS011;5001;51.674;7.868;2022-11-13T05:24:30;12.93;;;10.60;;
9924;SDS011;5001;51.674;7.868;2022-11-13T05:27:16;13.97;;;11.23;;
9924;SDS011;5001;51.674;7.868;2022-11-13T05:30:02;12.33;;;9.87;;
9924;SDS011;5001;51.674;7.868;2022-11-13T05:32:48;13.60;;;11.00;;
9924;SDS011;5001;51.674;7.868;2022-11-13T05:35:33;15.10;;;10.87;;
9924;SDS011;5001;51.674;7.868;2022-11-13T05:38:19;14.80;;;10.80;;
9924;SDS011;5001;51.674;7.868;2022-11-13T05:41:09;11.63;;;9.83;;
9924;SDS011;5001;51.674;7.868;2022-11-13T05:43:57;16.87;;;10.63;;
9924;SDS011;5001;51.674;7.868;2022-11-13T05:46:43;15.47;;;9.97;;
9924;SDS011;5001;51.674;7.868;2022-11-13T05:49:29;11.13;;;9.93;;
9924;SDS011;5001;51.674;7.868;2022-11-13T05:52:15;12.17;;;9.90;;
9924;SDS011;5001;51.674;7.868;2022-11-13T05:55:00;13.83;;;10.20;;
9924;SDS011;5001;51.674;7.868;2022-11-13T05:57:46;14.80;;;11.77;;
9924;SDS011;5001;51.674;7.868;2022-11-13T06:00:31;12.20;;;10.53;;
9924;SDS011;5001;51.674;7.868;2022-11-13T06:03:17;13.50;;;10.87;;
9924;SDS011;5001;51.674;7.868;2022-11-13T06:06:03;17.03;;;12.67;;
9924;SDS011;5001;51.674;7.868;2022-11-13T06:08:50;15.20;;;11.90;;
9924;SDS011;5001;51.674;7.868;2022-11-13T06:11:37;13.63;;;11.43;;
9924;SDS011;5001;51.674;7.868;2022-11-13T06:14:23;15.63;;;12.43;;
9924;SDS011;5001;51.674;7.868;2022-11-13T06:17:08;16.03;;;12.53;;
9924;SDS011;5001;51.674;7.868;2022-11-13T06:19:54;18.80;;;12.00;;
9924;SDS011;5001;51.674;7.868;2022-11-13T06:22:39;14.20;;;11.60;;
9924;SDS011;5001;51.674;7.868;2022-11-13T06:25:25;16.00;;;12.13;;
9924;SDS011;5001;51.674;7.868;2022-11-13T06:28:11;14.70;;;12.30;;
9924;SDS011;5001;51.674;7.868;2022-11-13T06:31:04;16.97;;;13.50;;
9924;SDS011;5001;51.674;7.868;2022-11-13T06:33:51;17.17;;;11.70;;
9924;SDS011;5001;51.674;7.868;2022-11-13T06:36:37;18.13;;;14.07;;
9924;SDS011;5001;51.674;7.868;2022-11-13T06:39:22;16.70;;;12.37;;
9924;SDS011;5001;51.674;7.868;2022-11-13T06:42:07;16.73;;;13.57;;
9924;SDS011;5001;51.674;7.868;2022-11-13T06:44:53;18.47;;;13.87;;
9924;SDS011;5001;51.674;7.868;2022-11-13T06:47:39;21.10;;;15.37;;
9924;SDS011;5001;51.674;7.868;2022-11-13T06:50:24;18.47;;;14.13;;
9924;SDS011;5001;51.674;7.868;2022-11-13T06:53:09;22.77;;;14.93;;
9924;SDS011;5001;51.674;7.868;2022-11-13T06:55:55;20.30;;;15.17;;
9924;SDS011;5001;51.674;7.868;2022-11-13T06:58:42;17.07;;;14.63;;
9924;SDS011;5001;51.674;7.868;2022-11-13T07:01:28;27.53;;;20.27;;
9924;SDS011;5001;51.674;7.868;2022-11-13T07:04:13;21.87;;;16.30;;
9924;SDS011;5001;51.674;7.868;2022-11-13T07:06:59;20.03;;;14.80;;
9924;SDS011;5001;51.674;7.868;2022-11-13T07:09:45;17.53;;;13.47;;
9924;SDS011;5001;51.674;7.868;2022-11-13T07:12:31;54.03;;;33.33;;
9924;SDS011;5001;51.674;7.868;2022-11-13T07:15:16;32.83;;;22.07;;
9924;SDS011;5001;51.674;7.868;2022-11-13T07:18:03;17.73;;;13.93;;
9924;SDS011;5001;51.674;7.868;2022-11-13T07:20:49;15.30;;;11.87;;
9924;SDS011;5001;51.674;7.868;2022-11-13T07:23:35;13.90;;;11.73;;
9924;SDS011;5001;51.674;7.868;2022-11-13T07:26:26;20.57;;;15.00;;
9924;SDS011;5001;51.674;7.868;2022-11-13T07:29:11;17.20;;;14.27;;
9924;SDS011;5001;51.674;7.868;2022-11-13T07:31:57;20.67;;;14.13;;
9924;SDS011;5001;51.674;7.868;2022-11-13T07:34:43;18.20;;;13.37;;
9924;SDS011;5001;51.674;7.868;2022-11-13T07:37:28;18.17;;;15.17;;
9924;SDS011;5001;51.674;7.868;2022-11-13T07:40:14;18.63;;;16.23;;
9924;SDS011;5001;51.674;7.868;2022-11-13T07:43:01;25.23;;;17.13;;
9924;SDS011;5001;51.674;7.868;2022-11-13T07:45:47;19.30;;;14.63;;
9924;SDS011;5001;51.674;7.868;2022-11-13T07:48:38;21.97;;;17.27;;
9924;SDS011;5001;51.674;7.868;2022-11-13T07:51:24;20.80;;;15.30;;
9924;SDS011;5001;51.674;7.868;2022-11-13T07:54:09;22.73;;;17.97;;
9924;SDS011;5001;51.674;7.868;2022-11-13T07:56:55;22.33;;;17.57;;
9924;SDS011;5001;51.674;7.868;2022-11-13T07:59:41;26.90;;;19.87;;
9924;SDS011;5001;51.674;7.868;2022-11-13T08:02:26;16.33;;;13.23;;
9924;SDS011;5001;51.674;7.868;2022-11-13T08:05:13;15.83;;;12.90;;
9924;SDS011;5001;51.674;7.868;2022-11-13T08:07:59;17.07;;;11.67;;
9924;SDS011;5001;51.674;7.868;2022-11-13T08:10:44;29.07;;;26.07;;
9924;SDS011;5001;51.674;7.868;2022-11-13T08:13:30;18.17;;;16.20;;
9924;SDS011;5001;51.674;7.868;2022-11-13T08:16:15;15.50;;;11.77;;
9924;SDS011;5001;51.674;7.868;2022-11-13T08:19:01;16.20;;;13.00;;
9924;SDS011;5001;51.674;7.868;2022-11-13T08:21:47;17.13;;;13.63;;
9924;SDS011;5001;51.674;7.868;2022-11-13T08:24:32;26.23;;;22.40;;
9924;SDS011;5001;51.674;7.868;2022-11-13T08:27:21;23.57;;;18.50;;
9924;SDS011;5001;51.674;7.868;2022-11-13T08:30:07;17.77;;;13.90;;
9924;SDS011;5001;51.674;7.868;2022-11-13T08:32:53;19.50;;;13.73;;
9924;SDS011;5001;51.674;7.868;2022-11-13T08:35:39;24.47;;;14.77;;
9924;SDS011;5001;51.674;7.868;2022-11-13T08:38:24;19.10;;;12.17;;
9924;SDS011;5001;51.674;7.868;2022-11-13T08:41:11;15.13;;;10.90;;
9924;SDS011;5001;51.674;7.868;2022-11-13T08:43:56;10.53;;;8.40;;
9924;SDS011;5001;51.674;7.868;2022-11-13T08:46:42;10.30;;;8.17;;
9924;SDS011;5001;51.674;7.868;2022-11-13T08:49:27;7.93;;;7.13;;
9924;SDS011;5001;51.674;7.868;2022-11-13T08:52:13;8.33;;;6.00;;
9924;SDS011;5001;51.674;7.868;2022-11-13T08:54:59;7.90;;;6.40;;
9924;SDS011;5001;51.674;7.868;2022-11-13T08:57:44;6.03;;;5.40;;
9924;SDS011;5001;51.674;7.868;2022-11-13T09:00:30;6.30;;;4.60;;
9924;SDS011;5001;51.674;7.868;2022-11-13T09:03:17;4.70;;;3.83;;
9924;SDS011;5001;51.674;7.868;2022-11-13T09:06:05;6.35;;;4.30;;
9924;SDS011;5001;51.674;7.868;2022-11-13T09:08:52;4.93;;;3.60;;
9924;SDS011;5001;51.674;7.868;2022-11-13T09:11:37;5.45;;;4.10;;
9924;SDS011;5001;51.674;7.868;2022-11-13T09:14:23;4.32;;;3.83;;
9924;SDS011;5001;51.674;7.868;2022-11-13T09:17:09;5.25;;;3.90;;
9924;SDS011;5001;51.674;7.868;2022-11-13T09:19:54;4.35;;;3.65;;
9924;SDS011;5001;51.674;7.868;2022-11-13T09:22:45;3.33;;;3.03;;
9924;SDS011;5001;51.674;7.868;2022-11-13T09:25:32;5.45;;;3.50;;
9924;SDS011;5001;51.674;7.868;2022-11-13T09:28:21;4.65;;;3.97;;
9924;SDS011;5001;51.674;7.868;2022-11-13T09:31:07;5.10;;;4.07;;
9924;SDS011;5001;51.674;7.868;2022-11-13T09:33:52;4.57;;;4.10;;
9924;SDS011;5001;51.674;7.868;2022-11-13T09:36:38;4.88;;;4.00;;
9924;SDS011;5001;51.674;7.868;2022-11-13T09:39:23;5.78;;;3.60;;
9924;SDS011;5001;51.674;7.868;2022-11-13T09:44:56;3.50;;;3.17;;
9924;SDS011;5001;51.674;7.868;2022-11-13T09:47:50;6.78;;;3.88;;
9924;SDS011;5001;51.674;7.868;2022-11-13T09:50:38;7.45;;;3.50;;
9924;SDS011;5001;51.674;7.868;2022-11-13T09:53:24;3.60;;;3.30;;
9924;SDS011;5001;51.674;7.868;2022-11-13T09:56:24;4.60;;;2.90;;
9924;SDS011;5001;51.674;7.868;2022-11-13T10:17:40;11.90;;;7.68;;
9924;SDS011;5001;51.674;7.868;2022-11-13T10:20:35;5.43;;;3.60;;
9924;SDS011;5001;51.674;7.868;2022-11-13T10:23:30;20.52;;;11.27;;
9924;SDS011;5001;51.674;7.868;2022-11-13T10:26:19;3.53;;;3.10;;
9924;SDS011;5001;51.674;7.868;2022-11-13T10:31:56;3.15;;;2.72;;
9924;SDS011;5001;51.674;7.868;2022-11-13T10:34:45;3.35;;;3.03;;
9924;SDS011;5001;51.674;7.868;2022-11-13T10:38:00;3.65;;;2.47;;
9924;SDS011;5001;51.674;7.868;2022-11-13T10:41:13;2.75;;;2.30;;
9924;SDS011;5001;51.674;7.868;2022-11-13T10:44:01;3.20;;;2.88;;
9924;SDS011;5001;51.674;7.868;2022-11-13T10:47:01;5.25;;;2.30;;
9924;SDS011;5001;51.674;7.868;2022-11-13T10:50:26;3.25;;;2.95;;
9924;SDS011;5001;51.674;7.868;2022-11-13T10:53:13;4.90;;;3.47;;
9924;SDS011;5001;51.674;7.868;2022-11-13T10:56:20;5.35;;;2.80;;
9924;SDS011;5001;51.674;7.868;2022-11-13T10:59:14;3.22;;;2.58;;
9924;SDS011;5001;51.674;7.868;2022-11-13T11:05:06;4.07;;;2.95;;
9924;SDS011;5001;51.674;7.868;2022-11-13T11:08:08;3.08;;;2.63;;
9924;SDS011;5001;51.674;7.868;2022-11-13T11:10:59;4.57;;;3.40;;
9924;SDS011;5001;51.674;7.868;2022-11-13T11:17:12;4.07;;;3.42;;
9924;SDS011;5001;51.674;7.868;2022-11-13T11:23:01;4.25;;;3.55;;
9924;SDS011;5001;51.674;7.868;2022-11-13T11:26:11;3.55;;;2.70;;
9924;SDS011;5001;51.674;7.868;2022-11-13T11:32:24;3.45;;;2.60;;
9924;SDS011;5001;51.674;7.868;2022-11-13T11:35:16;2.95;;;2.67;;
9924;SDS011;5001;51.674;7.868;2022-11-13T11:41:10;5.35;;;3.30;;
9924;SDS011;5001;51.674;7.868;2022-11-13T11:46:55;4.20;;;2.97;;
9924;SDS011;5001;51.674;7.868;2022-11-13T11:49:42;3.63;;;3.03;;
9924;SDS011;5001;51.674;7.868;2022-11-13T11:55:45;3.42;;;3.08;;
9924;SDS011;5001;51.674;7.868;2022-11-13T12:01:49;9.73;;;6.60;;
9924;SDS011;5001;51.674;7.868;2022-11-13T12:07:55;19.60;;;11.93;;
9924;SDS011;5001;51.674;7.868;2022-11-13T12:14:14;52.08;;;25.40;;
9924;SDS011;5001;51.674;7.868;2022-11-13T12:18:14;38.13;;;17.30;;
9924;SDS011;5001;51.674;7.868;2022-11-13T12:20:29;22.83;;;16.23;;
9924;SDS011;5001;51.674;7.868;2022-11-13T12:23:29;17.95;;;11.70;;
9924;SDS011;5001;51.674;7.868;2022-11-13T12:26:40;11.93;;;6.68;;
9924;SDS011;5001;51.674;7.868;2022-11-13T12:32:39;5.38;;;4.03;;
9924;SDS011;5001;51.674;7.868;2022-11-13T12:35:32;7.40;;;5.25;;
9924;SDS011;5001;51.674;7.868;2022-11-13T12:41:27;4.05;;;3.55;;
9924;SDS011;5001;51.674;7.868;2022-11-13T12:47:08;5.63;;;4.03;;
9924;SDS011;5001;51.674;7.868;2022-11-13T12:50:03;5.93;;;3.90;;
9924;SDS011;5001;51.674;7.868;2022-11-13T12:53:00;4.88;;;3.83;;
9924;SDS011;5001;51.674;7.868;2022-11-13T12:55:54;4.68;;;3.53;;
9924;SDS011;5001;51.674;7.868;2022-11-13T12:58:51;4.10;;;3.70;;
9924;SDS011;5001;51.674;7.868;2022-11-13T13:02:02;6.50;;;3.45;;
9924;SDS011;5001;51.674;7.868;2022-11-13T13:10:53;3.80;;;2.95;;
9924;SDS011;5001;51.674;7.868;2022-11-13T13:13:46;4.05;;;3.30;;
9924;SDS011;5001;51.674;7.868;2022-11-13T13:16:39;5.63;;;3.30;;
9924;SDS011;5001;51.674;7.868;2022-11-13T13:19:31;4.50;;;3.22;;
9924;SDS011;5001;51.674;7.868;2022-11-13T13:22:28;4.82;;;2.97;;
9924;SDS011;5001;51.674;7.868;2022-11-13T13:28:19;3.15;;;2.70;;
9924;SDS011;5001;51.674;7.868;2022-11-13T13:37:25;3.75;;;2.17;;
9924;SDS011;5001;51.674;7.868;2022-11-13T13:43:42;2.22;;;1.90;;
9924;SDS011;5001;51.674;7.868;2022-11-13T13:46:38;3.92;;;2.60;;
9924;SDS011;5001;51.674;7.868;2022-11-13T13:49:25;2.47;;;1.85;;
9924;SDS011;5001;51.674;7.868;2022-11-13T13:52:15;3.97;;;1.80;;
9924;SDS011;5001;51.674;7.868;2022-11-13T13:55:04;3.28;;;2.42;;
9924;SDS011;5001;51.674;7.868;2022-11-13T13:57:51;2.50;;;1.77;;
9924;SDS011;5001;51.674;7.868;2022-11-13T14:00:37;2.58;;;1.90;;
9924;SDS011;5001;51.674;7.868;2022-11-13T14:03:42;4.65;;;2.65;;
9924;SDS011;5001;51.674;7.868;2022-11-13T14:06:28;2.67;;;2.22;;
9924;SDS011;5001;51.674;7.868;2022-11-13T14:09:24;2.92;;;2.17;;
9924;SDS011;5001;51.674;7.868;2022-11-13T14:12:20;2.72;;;2.17;;
9924;SDS011;5001;51.674;7.868;2022-11-13T14:15:15;4.78;;;2.28;;
9924;SDS011;5001;51.674;7.868;2022-11-13T14:18:12;10.85;;;7.75;;
9924;SDS011;5001;51.674;7.868;2022-11-13T14:21:03;2.65;;;1.70;;
9924;SDS011;5001;51.674;7.868;2022-11-13T14:24:00;3.28;;;1.90;;
9924;SDS011;5001;51.674;7.868;2022-11-13T14:26:47;2.80;;;1.92;;
9924;SDS011;5001;51.674;7.868;2022-11-13T14:30:19;4.45;;;3.53;;
9924;SDS011;5001;51.674;7.868;2022-11-13T14:32:45;3.13;;;2.13;;
9924;SDS011;5001;51.674;7.868;2022-11-13T14:35:31;1.85;;;1.55;;
9924;SDS011;5001;51.674;7.868;2022-11-13T14:38:20;1.77;;;1.50;;
9924;SDS011;5001;51.674;7.868;2022-11-13T14:44:12;2.53;;;1.60;;
9924;SDS011;5001;51.674;7.868;2022-11-13T14:46:58;2.30;;;1.88;;
9924;SDS011;5001;51.674;7.868;2022-11-13T14:49:46;5.20;;;2.10;;
9924;SDS011;5001;51.674;7.868;2022-11-13T14:52:31;3.92;;;1.80;;
9924;SDS011;5001;51.674;7.868;2022-11-13T14:55:25;1.90;;;1.63;;
9924;SDS011;5001;51.674;7.868;2022-11-13T14:58:12;2.88;;;1.75;;
9924;SDS011;5001;51.674;7.868;2022-11-13T15:01:10;2.43;;;1.93;;
9924;SDS011;5001;51.674;7.868;2022-11-13T15:04:00;1.77;;;1.58;;
9924;SDS011;5001;51.674;7.868;2022-11-13T15:06:46;4.03;;;1.95;;
9924;SDS011;5001;51.674;7.868;2022-11-13T15:09:39;1.93;;;1.70;;
9924;SDS011;5001;51.674;7.868;2022-11-13T15:12:25;3.00;;;2.00;;
9924;SDS011;5001;51.674;7.868;2022-11-13T15:15:17;2.10;;;1.90;;
9924;SDS011;5001;51.674;7.868;2022-11-13T15:18:05;3.47;;;1.98;;
9924;SDS011;5001;51.674;7.868;2022-11-13T15:20:53;1.97;;;1.70;;
9924;SDS011;5001;51.674;7.868;2022-11-13T15:23:38;1.90;;;1.60;;
9924;SDS011;5001;51.674;7.868;2022-11-13T15:26:24;2.53;;;2.10;;
9924;SDS011;5001;51.674;7.868;2022-11-13T15:29:10;2.23;;;1.83;;
9924;SDS011;5001;51.674;7.868;2022-11-13T15:31:55;2.03;;;1.83;;
9924;SDS011;5001;51.674;7.868;2022-11-13T15:34:41;1.80;;;1.50;;
9924;SDS011;5001;51.674;7.868;2022-11-13T15:37:27;2.33;;;1.80;;
9924;SDS011;5001;51.674;7.868;2022-11-13T15:40:12;2.33;;;1.97;;
9924;SDS011;5001;51.674;7.868;2022-11-13T15:42:58;5.63;;;2.80;;
9924;SDS011;5001;51.674;7.868;2022-11-13T15:45:45;3.33;;;2.57;;
9924;SDS011;5001;51.674;7.868;2022-11-13T15:48:30;2.87;;;2.00;;
9924;SDS011;5001;51.674;7.868;2022-11-13T15:51:20;3.60;;;2.20;;
9924;SDS011;5001;51.674;7.868;2022-11-13T15:57:20;4.67;;;2.53;;
9924;SDS011;5001;51.674;7.868;2022-11-13T16:00:14;5.77;;;3.70;;
9924;SDS011;5001;51.674;7.868;2022-11-13T16:03:01;4.60;;;2.40;;
9924;SDS011;5001;51.674;7.868;2022-11-13T16:05:51;4.43;;;2.70;;
9924;SDS011;5001;51.674;7.868;2022-11-13T16:08:36;3.83;;;2.90;;
9924;SDS011;5001;51.674;7.868;2022-11-13T16:11:22;3.97;;;3.20;;
9924;SDS011;5001;51.674;7.868;2022-11-13T16:14:08;6.97;;;4.17;;
9924;SDS011;5001;51.674;7.868;2022-11-13T16:16:53;4.50;;;2.83;;
9924;SDS011;5001;51.674;7.868;2022-11-13T16:19:39;5.40;;;2.30;;
9924;SDS011;5001;51.674;7.868;2022-11-13T16:22:26;3.17;;;2.23;;
9924;SDS011;5001;51.674;7.868;2022-11-13T16:25:12;4.87;;;2.00;;
9924;SDS011;5001;51.674;7.868;2022-11-13T16:28:00;2.77;;;2.30;;
9924;SDS011;5001;51.674;7.868;2022-11-13T16:30:45;2.73;;;2.30;;
9924;SDS011;5001;51.674;7.868;2022-11-13T16:33:32;2.77;;;2.10;;
9924;SDS011;5001;51.674;7.868;2022-11-13T16:36:18;3.63;;;2.33;;
9924;SDS011;5001;51.674;7.868;2022-11-13T16:39:05;2.33;;;1.73;;
9924;SDS011;5001;51.674;7.868;2022-11-13T16:41:53;4.60;;;1.77;;
9924;SDS011;5001;51.674;7.868;2022-11-13T16:44:39;1.93;;;1.60;;
9924;SDS011;5001;51.674;7.868;2022-11-13T16:47:25;1.80;;;1.70;;
9924;SDS011;5001;51.674;7.868;2022-11-13T16:50:14;2.07;;;1.57;;
9924;SDS011;5001;51.674;7.868;2022-11-13T16:53:02;3.00;;;2.07;;
9924;SDS011;5001;51.674;7.868;2022-11-13T16:55:47;2.60;;;2.10;;
9924;SDS011;5001;51.674;7.868;2022-11-13T16:58:33;3.13;;;2.57;;
9924;SDS011;5001;51.674;7.868;2022-11-13T17:01:18;4.77;;;2.93;;
9924;SDS011;5001;51.674;7.868;2022-11-13T17:04:06;3.40;;;2.43;;
9924;SDS011;5001;51.674;7.868;2022-11-13T17:06:54;5.20;;;4.17;;
9924;SDS011;5001;51.674;7.868;2022-11-13T17:09:42;3.07;;;2.20;;
9924;SDS011;5001;51.674;7.868;2022-11-13T17:12:28;3.23;;;2.30;;
9924;SDS011;5001;51.674;7.868;2022-11-13T17:15:14;3.87;;;2.53;;
9924;SDS011;5001;51.674;7.868;2022-11-13T17:18:00;5.43;;;2.97;;
9924;SDS011;5001;51.674;7.868;2022-11-13T17:20:48;4.13;;;2.53;;
9924;SDS011;5001;51.674;7.868;2022-11-13T17:23:34;3.10;;;2.10;;
9924;SDS011;5001;51.674;7.868;2022-11-13T17:26:20;3.83;;;2.30;;
9924;SDS011;5001;51.674;7.868;2022-11-13T17:29:06;3.50;;;2.30;;
9924;SDS011;5001;51.674;7.868;2022-11-13T17:31:52;2.57;;;2.20;;
9924;SDS011;5001;51.674;7.868;2022-11-13T17:34:37;2.63;;;2.20;;
9924;SDS011;5001;51.674;7.868;2022-11-13T17:37:23;2.90;;;2.17;;
9924;SDS011;5001;51.674;7.868;2022-11-13T17:40:09;2.97;;;2.37;;
9924;SDS011;5001;51.674;7.868;2022-11-13T17:42:55;2.87;;;2.00;;
9924;SDS011;5001;51.674;7.868;2022-11-13T17:45:41;2.83;;;2.47;;
9924;SDS011;5001;51.674;7.868;2022-11-13T17:48:29;2.57;;;2.07;;
9924;SDS011;5001;51.674;7.868;2022-11-13T17:51:18;3.93;;;2.43;;
9924;SDS011;5001;51.674;7.868;2022-11-13T17:54:03;6.83;;;2.80;;
9924;SDS011;5001;51.674;7.868;2022-11-13T17:56:50;5.63;;;3.30;;
9924;SDS011;5001;51.674;7.868;2022-11-13T17:59:36;4.13;;;3.10;;
9924;SDS011;5001;51.674;7.868;2022-11-13T18:02:21;3.20;;;2.43;;
9924;SDS011;5001;51.674;7.868;2022-11-13T18:05:07;3.63;;;2.63;;
9924;SDS011;5001;51.674;7.868;2022-11-13T18:07:54;3.60;;;2.90;;
9924;SDS011;5001;51.674;7.868;2022-11-13T18:10:40;17.87;;;15.97;;
9924;SDS011;5001;51.674;7.868;2022-11-13T18:13:26;15.70;;;13.27;;
9924;SDS011;5001;51.674;7.868;2022-11-13T18:16:20;5.23;;;4.53;;
9924;SDS011;5001;51.674;7.868;2022-11-13T18:19:10;5.93;;;3.50;;
9924;SDS011;5001;51.674;7.868;2022-11-13T18:21:56;3.03;;;2.73;;
9924;SDS011;5001;51.674;7.868;2022-11-13T18:24:41;34.40;;;21.43;;
9924;SDS011;5001;51.674;7.868;2022-11-13T18:27:27;4.53;;;3.77;;
9924;SDS011;5001;51.674;7.868;2022-11-13T18:30:14;5.03;;;3.27;;
9924;SDS011;5001;51.674;7.868;2022-11-13T18:32:59;3.47;;;2.87;;
9924;SDS011;5001;51.674;7.868;2022-11-13T18:35:45;2.93;;;2.47;;
9924;SDS011;5001;51.674;7.868;2022-11-13T18:38:30;3.77;;;2.80;;
9924;SDS011;5001;51.674;7.868;2022-11-13T18:41:17;3.63;;;2.53;;
9924;SDS011;5001;51.674;7.868;2022-11-13T18:44:04;3.30;;;2.63;;